sensor_id;sensor_type;location;lat;lon;timestamp;pressure;altitude;pressure_sealevel;temperature;humidity
15477;BME280;7840;42.702;23.296;2022-07-29T00:00:44;95225.88;;;20.89;87.70
15477;BME280;7840;42.702;23.296;2022-07-29T00:03:12;95230.03;;;20.95;86.95
15477;BME280;7840;42.702;23.296;2022-07-29T00:05:41;95230.94;;;20.91;88.34
15477;BME280;7840;42.702;23.296;2022-07-29T00:08:09;95239.63;;;20.88;87.76
15477;BME280;7840;42.702;23.296;2022-07-29T00:10:38;95247.84;;;20.83;88.28
15477;BME280;7840;42.702;23.296;2022-07-29T00:13:12;95237.94;;;20.69;89.14
15477;BME280;7840;42.702;23.296;2022-07-29T00:15:42;95243.94;;;20.66;89.72
15477;BME280;7840;42.702;23.296;2022-07-29T00:18:14;95243.47;;;20.51;90.98
15477;BME280;7840;42.702;23.296;2022-07-29T00:20:42;95246.06;;;20.19;93.22
15477;BME280;7840;42.702;23.296;2022-07-29T00:23:10;95247.84;;;20.10;94.64
15477;BME280;7840;42.702;23.296;2022-07-29T00:25:39;95239.94;;;19.91;95.55
15477;BME280;7840;42.702;23.296;2022-07-29T00:28:07;95244.50;;;19.91;96.48
15477;BME280;7840;42.702;23.296;2022-07-29T00:30:35;95247.56;;;20.12;96.74
15477;BME280;7840;42.702;23.296;2022-07-29T00:33:02;95251.06;;;20.12;96.30
15477;BME280;7840;42.702;23.296;2022-07-29T00:35:33;95259.16;;;19.85;98.61
15477;BME280;7840;42.702;23.296;2022-07-29T00:38:12;95259.56;;;19.64;100.00
15477;BME280;7840;42.702;23.296;2022-07-29T00:40:42;95268.44;;;19.19;100.00
15477;BME280;7840;42.702;23.296;2022-07-29T00:43:11;95268.63;;;18.76;100.00
15477;BME280;7840;42.702;23.296;2022-07-29T00:45:39;95279.59;;;18.42;100.00
15477;BME280;7840;42.702;23.296;2022-07-29T00:48:07;95273.28;;;18.33;100.00
15477;BME280;7840;42.702;23.296;2022-07-29T00:50:35;95286.91;;;18.36;100.00
15477;BME280;7840;42.702;23.296;2022-07-29T00:53:05;95294.50;;;18.29;100.00
15477;BME280;7840;42.702;23.296;2022-07-29T00:55:33;95294.44;;;18.34;100.00
15477;BME280;7840;42.702;23.296;2022-07-29T00:58:05;95291.09;;;18.42;100.00
15477;BME280;7840;42.702;23.296;2022-07-29T01:00:34;95281.59;;;18.50;100.00
15477;BME280;7840;42.702;23.296;2022-07-29T01:03:03;95275.75;;;18.67;100.00
15477;BME280;7840;42.702;23.296;2022-07-29T01:05:31;95279.16;;;18.53;100.00
15477;BME280;7840;42.702;23.296;2022-07-29T01:07:59;95270.94;;;18.64;100.00
15477;BME280;7840;42.702;23.296;2022-07-29T01:10:30;95269.91;;;18.59;100.00
15477;BME280;7840;42.702;23.296;2022-07-29T01:12:59;95263.56;;;18.55;100.00
15477;BME280;7840;42.702;23.296;2022-07-29T01:15:29;95258.56;;;18.68;100.00
15477;BME280;7840;42.702;23.296;2022-07-29T01:18:03;95259.41;;;18.82;100.00
15477;BME280;7840;42.702;23.296;2022-07-29T01:21:01;95261.34;;;18.95;100.00
15477;BME280;7840;42.702;23.296;2022-07-29T01:23:57;95254.59;;;19.11;100.00
15477;BME280;7840;42.702;23.296;2022-07-29T01:26:45;95244.06;;;19.01;100.00
15477;BME280;7840;42.702;23.296;2022-07-29T01:29:21;95241.88;;;19.17;100.00
15477;BME280;7840;42.702;23.296;2022-07-29T01:32:03;95244.78;;;19.34;100.00
15477;BME280;7840;42.702;23.296;2022-07-29T01:34:39;95235.53;;;19.40;100.00
15477;BME280;7840;42.702;23.296;2022-07-29T01:37:18;95227.28;;;19.51;100.00
15477;BME280;7840;42.702;23.296;2022-07-29T01:39:48;95232.34;;;19.52;100.00
15477;BME280;7840;42.702;23.296;2022-07-29T01:42:23;95235.34;;;19.51;100.00
15477;BME280;7840;42.702;23.296;2022-07-29T01:44:59;95238.91;;;19.46;100.00
15477;BME280;7840;42.702;23.296;2022-07-29T01:47:42;95242.88;;;19.49;100.00
15477;BME280;7840;42.702;23.296;2022-07-29T01:50:14;95243.81;;;19.44;100.00
15477;BME280;7840;42.702;23.296;2022-07-29T01:52:45;95238.91;;;19.46;100.00
15477;BME280;7840;42.702;23.296;2022-07-29T01:55:16;95228.38;;;19.36;100.00
15477;BME280;7840;42.702;23.296;2022-07-29T01:57:48;95229.97;;;19.37;100.00
15477;BME280;7840;42.702;23.296;2022-07-29T02:00:21;95224.78;;;19.27;100.00
15477;BME280;7840;42.702;23.296;2022-07-29T02:03:07;95224.38;;;19.47;100.00
15477;BME280;7840;42.702;23.296;2022-07-29T02:05:38;95230.78;;;19.51;100.00
15477;BME280;7840;42.702;23.296;2022-07-29T02:08:24;95226.97;;;19.52;100.00
15477;BME280;7840;42.702;23.296;2022-07-29T02:10:54;95222.31;;;19.44;100.00
15477;BME280;7840;42.702;23.296;2022-07-29T02:13:25;95224.47;;;19.42;100.00
15477;BME280;7840;42.702;23.296;2022-07-29T02:15:57;95217.03;;;19.39;100.00
15477;BME280;7840;42.702;23.296;2022-07-29T02:18:28;95220.59;;;19.48;100.00
15477;BME280;7840;42.702;23.296;2022-07-29T02:20:59;95216.44;;;19.56;100.00
15477;BME280;7840;42.702;23.296;2022-07-29T02:23:28;95214.47;;;19.61;100.00
15477;BME280;7840;42.702;23.296;2022-07-29T02:25:58;95214.84;;;19.68;100.00
15477;BME280;7840;42.702;23.296;2022-07-29T02:28:28;95212.75;;;19.79;100.00
15477;BME280;7840;42.702;23.296;2022-07-29T02:31:01;95213.94;;;19.87;100.00
15477;BME280;7840;42.702;23.296;2022-07-29T02:33:31;95204.28;;;19.86;100.00
15477;BME280;7840;42.702;23.296;2022-07-29T02:36:03;95196.72;;;19.88;100.00
15477;BME280;7840;42.702;23.296;2022-07-29T02:38:31;95197.72;;;19.92;100.00
15477;BME280;7840;42.702;23.296;2022-07-29T02:41:18;95194.22;;;19.91;100.00
15477;BME280;7840;42.702;23.296;2022-07-29T02:43:48;95196.81;;;19.83;100.00
15477;BME280;7840;42.702;23.296;2022-07-29T02:46:21;95195.75;;;19.84;100.00
15477;BME280;7840;42.702;23.296;2022-07-29T02:48:58;95199.50;;;19.41;100.00
15477;BME280;7840;42.702;23.296;2022-07-29T02:51:32;95200.28;;;19.01;100.00
15477;BME280;7840;42.702;23.296;2022-07-29T02:54:06;95206.69;;;19.19;100.00
15477;BME280;7840;42.702;23.296;2022-07-29T02:56:35;95196.72;;;19.19;100.00
15477;BME280;7840;42.702;23.296;2022-07-29T02:59:09;95198.13;;;19.44;100.00
15477;BME280;7840;42.702;23.296;2022-07-29T03:01:41;95201.69;;;19.53;100.00
15477;BME280;7840;42.702;23.296;2022-07-29T03:04:12;95197.38;;;19.57;100.00
15477;BME280;7840;42.702;23.296;2022-07-29T03:06:41;95201.22;;;19.51;100.00
15477;BME280;7840;42.702;23.296;2022-07-29T03:09:17;95201.31;;;19.46;100.00
15477;BME280;7840;42.702;23.296;2022-07-29T03:12:00;95202.72;;;19.44;100.00
15477;BME280;7840;42.702;23.296;2022-07-29T03:14:29;95203.28;;;19.40;100.00
15477;BME280;7840;42.702;23.296;2022-07-29T03:16:59;95201.13;;;19.43;100.00
15477;BME280;7840;42.702;23.296;2022-07-29T03:19:27;95211.16;;;19.37;100.00
15477;BME280;7840;42.702;23.296;2022-07-29T03:21:57;95208.66;;;19.40;100.00
15477;BME280;7840;42.702;23.296;2022-07-29T03:24:30;95204.59;;;19.43;100.00
15477;BME280;7840;42.702;23.296;2022-07-29T03:27:08;95208.88;;;19.44;100.00
15477;BME280;7840;42.702;23.296;2022-07-29T03:29:36;95205.88;;;19.46;100.00
15477;BME280;7840;42.702;23.296;2022-07-29T03:32:20;95206.59;;;19.51;100.00
15477;BME280;7840;42.702;23.296;2022-07-29T03:34:47;95211.88;;;19.56;100.00
15477;BME280;7840;42.702;23.296;2022-07-29T03:37:15;95217.16;;;19.61;100.00
15477;BME280;7840;42.702;23.296;2022-07-29T03:39:46;95207.41;;;19.65;100.00
15477;BME280;7840;42.702;23.296;2022-07-29T03:42:16;95204.50;;;19.76;100.00
15477;BME280;7840;42.702;23.296;2022-07-29T03:44:49;95206.50;;;19.84;100.00
15477;BME280;7840;42.702;23.296;2022-07-29T03:47:24;95212.47;;;19.81;100.00
15477;BME280;7840;42.702;23.296;2022-07-29T03:49:56;95217.44;;;19.74;100.00
15477;BME280;7840;42.702;23.296;2022-07-29T03:52:25;95225.81;;;19.58;100.00
15477;BME280;7840;42.702;23.296;2022-07-29T03:54:53;95228.38;;;19.36;100.00
15477;BME280;7840;42.702;23.296;2022-07-29T03:57:23;95224.91;;;19.35;100.00
15477;BME280;7840;42.702;23.296;2022-07-29T04:00:06;95226.53;;;19.04;100.00
15477;BME280;7840;42.702;23.296;2022-07-29T04:02:36;95238.38;;;19.03;100.00
15477;BME280;7840;42.702;23.296;2022-07-29T04:05:07;95235.31;;;19.09;100.00
15477;BME280;7840;42.702;23.296;2022-07-29T04:07:38;95233.97;;;18.93;100.00
15477;BME280;7840;42.702;23.296;2022-07-29T04:10:07;95229.69;;;18.92;100.00
15477;BME280;7840;42.702;23.296;2022-07-29T04:12:35;95233.50;;;19.05;100.00
15477;BME280;7840;42.702;23.296;2022-07-29T04:15:04;95231.34;;;19.21;100.00
15477;BME280;7840;42.702;23.296;2022-07-29T04:17:31;95222.09;;;19.27;100.00
15477;BME280;7840;42.702;23.296;2022-07-29T04:20:00;95222.88;;;19.27;100.00
15477;BME280;7840;42.702;23.296;2022-07-29T04:22:28;95217.63;;;19.36;100.00
15477;BME280;7840;42.702;23.296;2022-07-29T04:24:56;95219.41;;;19.54;100.00
15477;BME280;7840;42.702;23.296;2022-07-29T04:27:23;95221.84;;;19.70;100.00
15477;BME280;7840;42.702;23.296;2022-07-29T04:29:51;95220.03;;;19.79;100.00
15477;BME280;7840;42.702;23.296;2022-07-29T04:32:19;95211.47;;;19.77;100.00
15477;BME280;7840;42.702;23.296;2022-07-29T04:34:47;95229.38;;;19.67;100.00
15477;BME280;7840;42.702;23.296;2022-07-29T04:37:16;95230.41;;;19.72;100.00
15477;BME280;7840;42.702;23.296;2022-07-29T04:39:47;95234.34;;;19.88;100.00
15477;BME280;7840;42.702;23.296;2022-07-29T04:42:17;95233.91;;;20.08;100.00
15477;BME280;7840;42.702;23.296;2022-07-29T04:44:44;95231.88;;;20.28;100.00
15477;BME280;7840;42.702;23.296;2022-07-29T04:47:12;95229.06;;;20.33;100.00
15477;BME280;7840;42.702;23.296;2022-07-29T04:49:40;95240.09;;;20.45;98.85
15477;BME280;7840;42.702;23.296;2022-07-29T04:52:08;95236.03;;;20.47;98.86
15477;BME280;7840;42.702;23.296;2022-07-29T04:54:37;95241.09;;;20.49;98.75
15477;BME280;7840;42.702;23.296;2022-07-29T04:57:05;95241.16;;;20.58;98.30
15477;BME280;7840;42.702;23.296;2022-07-29T04:59:42;95242.31;;;20.65;97.12
15477;BME280;7840;42.702;23.296;2022-07-29T05:02:13;95223.00;;;20.63;95.98
15477;BME280;7840;42.702;23.296;2022-07-29T05:04:41;95232.53;;;20.92;95.19
15477;BME280;7840;42.702;23.296;2022-07-29T05:07:11;95234.53;;;21.09;94.17
15477;BME280;7840;42.702;23.296;2022-07-29T05:09:40;95235.94;;;21.06;94.57
15477;BME280;7840;42.702;23.296;2022-07-29T05:12:13;95228.59;;;20.98;93.91
15477;BME280;7840;42.702;23.296;2022-07-29T05:14:47;95231.66;;;21.05;94.38
15477;BME280;7840;42.702;23.296;2022-07-29T05:17:15;95240.84;;;21.04;92.91
15477;BME280;7840;42.702;23.296;2022-07-29T05:19:45;95240.28;;;21.16;92.42
15477;BME280;7840;42.702;23.296;2022-07-29T05:22:12;95239.84;;;21.22;92.54
15477;BME280;7840;42.702;23.296;2022-07-29T05:24:55;95245.13;;;21.05;92.93
15477;BME280;7840;42.702;23.296;2022-07-29T05:27:23;95237.75;;;21.42;93.15
15477;BME280;7840;42.702;23.296;2022-07-29T05:29:52;95228.91;;;21.58;91.67
15477;BME280;7840;42.702;23.296;2022-07-29T05:32:23;95228.78;;;21.72;89.17
15477;BME280;7840;42.702;23.296;2022-07-29T05:34:51;95229.94;;;21.89;87.94
15477;BME280;7840;42.702;23.296;2022-07-29T05:37:19;95234.25;;;21.90;86.27
15477;BME280;7840;42.702;23.296;2022-07-29T05:39:47;95236.69;;;22.08;85.11
15477;BME280;7840;42.702;23.296;2022-07-29T05:42:18;95232.09;;;22.18;83.75
15477;BME280;7840;42.702;23.296;2022-07-29T05:44:46;95236.06;;;22.29;81.45
15477;BME280;7840;42.702;23.296;2022-07-29T05:47:14;95235.75;;;22.39;80.58
15477;BME280;7840;42.702;23.296;2022-07-29T05:49:42;95228.13;;;22.50;79.20
15477;BME280;7840;42.702;23.296;2022-07-29T05:52:10;95232.41;;;22.68;78.54
15477;BME280;7840;42.702;23.296;2022-07-29T05:54:39;95235.44;;;22.75;77.66
15477;BME280;7840;42.702;23.296;2022-07-29T05:57:07;95237.31;;;22.83;76.51
15477;BME280;7840;42.702;23.296;2022-07-29T05:59:39;95232.06;;;23.04;75.95
15477;BME280;7840;42.702;23.296;2022-07-29T06:02:07;95232.81;;;23.22;74.65
15477;BME280;7840;42.702;23.296;2022-07-29T06:04:34;95232.34;;;23.29;73.38
15477;BME280;7840;42.702;23.296;2022-07-29T06:07:02;95238.44;;;23.46;72.65
15477;BME280;7840;42.702;23.296;2022-07-29T06:09:31;95231.13;;;23.56;72.75
15477;BME280;7840;42.702;23.296;2022-07-29T06:12:00;95229.97;;;23.65;71.83
15477;BME280;7840;42.702;23.296;2022-07-29T06:14:29;95230.69;;;23.83;70.78
15477;BME280;7840;42.702;23.296;2022-07-29T06:16:58;95227.09;;;24.00;69.38
15477;BME280;7840;42.702;23.296;2022-07-29T06:19:25;95233.25;;;24.09;68.89
15477;BME280;7840;42.702;23.296;2022-07-29T06:21:53;95229.81;;;24.21;67.95
15477;BME280;7840;42.702;23.296;2022-07-29T06:24:21;95234.31;;;24.17;67.27
15477;BME280;7840;42.702;23.296;2022-07-29T06:27:03;95230.50;;;24.18;67.32
15477;BME280;7840;42.702;23.296;2022-07-29T06:29:33;95222.81;;;24.20;66.50
15477;BME280;7840;42.702;23.296;2022-07-29T06:32:04;95225.44;;;24.37;65.28
15477;BME280;7840;42.702;23.296;2022-07-29T06:34:40;95216.09;;;24.26;65.78
15477;BME280;7840;42.702;23.296;2022-07-29T06:37:23;95219.50;;;24.44;66.14
15477;BME280;7840;42.702;23.296;2022-07-29T06:40:04;95228.69;;;24.51;65.33
15477;BME280;7840;42.702;23.296;2022-07-29T06:42:49;95226.28;;;24.71;63.84
15477;BME280;7840;42.702;23.296;2022-07-29T06:45:17;95222.03;;;24.82;64.06
15477;BME280;7840;42.702;23.296;2022-07-29T06:47:49;95215.16;;;25.05;62.68
15477;BME280;7840;42.702;23.296;2022-07-29T06:50:17;95219.91;;;25.21;61.87
15477;BME280;7840;42.702;23.296;2022-07-29T06:52:44;95212.38;;;25.38;61.25
15477;BME280;7840;42.702;23.296;2022-07-29T06:55:12;95222.66;;;25.45;59.51
15477;BME280;7840;42.702;23.296;2022-07-29T06:57:40;95215.91;;;25.63;58.34
15477;BME280;7840;42.702;23.296;2022-07-29T07:00:09;95217.69;;;25.72;58.94
15477;BME280;7840;42.702;23.296;2022-07-29T07:02:37;95213.22;;;25.88;58.65
15477;BME280;7840;42.702;23.296;2022-07-29T07:05:07;95211.38;;;26.04;57.67
15477;BME280;7840;42.702;23.296;2022-07-29T07:07:35;95203.94;;;25.89;56.60
15477;BME280;7840;42.702;23.296;2022-07-29T07:10:03;95212.63;;;26.07;55.85
15477;BME280;7840;42.702;23.296;2022-07-29T07:12:33;95199.94;;;26.11;55.71
15477;BME280;7840;42.702;23.296;2022-07-29T07:15:01;95202.75;;;26.27;55.16
15477;BME280;7840;42.702;23.296;2022-07-29T07:17:29;95202.38;;;26.28;55.03
15477;BME280;7840;42.702;23.296;2022-07-29T07:19:56;95195.50;;;26.43;55.00
15477;BME280;7840;42.702;23.296;2022-07-29T07:22:39;95200.44;;;26.53;54.12
15477;BME280;7840;42.702;23.296;2022-07-29T07:25:07;95202.00;;;26.54;53.61
15477;BME280;7840;42.702;23.296;2022-07-29T07:27:43;95203.84;;;26.50;53.96
15477;BME280;7840;42.702;23.296;2022-07-29T07:30:11;95199.25;;;26.66;54.44
15477;BME280;7840;42.702;23.296;2022-07-29T07:32:40;95190.41;;;26.97;52.94
15477;BME280;7840;42.702;23.296;2022-07-29T07:35:10;95206.25;;;27.23;52.25
15477;BME280;7840;42.702;23.296;2022-07-29T07:37:39;95198.00;;;27.36;51.14
15477;BME280;7840;42.702;23.296;2022-07-29T07:40:09;95203.19;;;26.97;51.76
15477;BME280;7840;42.702;23.296;2022-07-29T07:42:39;95198.34;;;27.18;52.03
15477;BME280;7840;42.702;23.296;2022-07-29T07:45:08;95203.69;;;27.15;50.73
15477;BME280;7840;42.702;23.296;2022-07-29T07:47:36;95199.81;;;27.16;50.98
15477;BME280;7840;42.702;23.296;2022-07-29T07:50:06;95198.63;;;27.29;49.96
15477;BME280;7840;42.702;23.296;2022-07-29T07:52:34;95194.59;;;27.54;49.94
15477;BME280;7840;42.702;23.296;2022-07-29T07:55:14;95199.63;;;27.68;50.01
15477;BME280;7840;42.702;23.296;2022-07-29T07:57:41;95192.22;;;27.85;48.92
15477;BME280;7840;42.702;23.296;2022-07-29T08:00:10;95195.56;;;28.13;48.69
15477;BME280;7840;42.702;23.296;2022-07-29T08:02:41;95192.16;;;28.16;48.75
15477;BME280;7840;42.702;23.296;2022-07-29T08:05:11;95192.75;;;28.25;48.52
15477;BME280;7840;42.702;23.296;2022-07-29T08:08:01;95190.91;;;28.14;48.38
15477;BME280;7840;42.702;23.296;2022-07-29T08:10:31;95189.69;;;28.46;48.12
15477;BME280;7840;42.702;23.296;2022-07-29T08:13:16;95194.88;;;28.16;48.06
15477;BME280;7840;42.702;23.296;2022-07-29T08:15:44;95188.34;;;28.56;48.34
15477;BME280;7840;42.702;23.296;2022-07-29T08:18:12;95183.59;;;28.53;47.28
15477;BME280;7840;42.702;23.296;2022-07-29T08:20:40;95196.38;;;28.68;47.04
15477;BME280;7840;42.702;23.296;2022-07-29T08:23:08;95186.06;;;28.97;46.47
15477;BME280;7840;42.702;23.296;2022-07-29T08:25:37;95187.06;;;29.31;45.61
15477;BME280;7840;42.702;23.296;2022-07-29T08:28:05;95192.88;;;29.29;45.02
15477;BME280;7840;42.702;23.296;2022-07-29T08:30:33;95185.16;;;29.35;45.21
15477;BME280;7840;42.702;23.296;2022-07-29T08:33:01;95190.66;;;29.58;44.01
15477;BME280;7840;42.702;23.296;2022-07-29T08:35:29;95188.75;;;29.39;44.13
15477;BME280;7840;42.702;23.296;2022-07-29T08:37:58;95182.72;;;29.72;43.51
15477;BME280;7840;42.702;23.296;2022-07-29T08:40:26;95187.75;;;29.96;43.66
15477;BME280;7840;42.702;23.296;2022-07-29T08:42:55;95189.03;;;30.29;42.42
15477;BME280;7840;42.702;23.296;2022-07-29T08:45:23;95182.63;;;30.18;42.14
15477;BME280;7840;42.702;23.296;2022-07-29T08:47:52;95191.53;;;30.41;42.05
15477;BME280;7840;42.702;23.296;2022-07-29T08:50:20;95172.66;;;30.63;41.06
15477;BME280;7840;42.702;23.296;2022-07-29T08:52:49;95177.16;;;30.78;40.67
15477;BME280;7840;42.702;23.296;2022-07-29T08:55:18;95183.16;;;30.91;40.73
15477;BME280;7840;42.702;23.296;2022-07-29T08:57:47;95180.78;;;31.23;39.66
15477;BME280;7840;42.702;23.296;2022-07-29T09:00:17;95168.59;;;31.17;39.95
15477;BME280;7840;42.702;23.296;2022-07-29T09:03:06;95171.34;;;31.61;39.19
15477;BME280;7840;42.702;23.296;2022-07-29T09:05:42;95173.94;;;31.43;38.58
15477;BME280;7840;42.702;23.296;2022-07-29T09:08:12;95172.59;;;31.71;39.23
15477;BME280;7840;42.702;23.296;2022-07-29T09:10:40;95160.31;;;31.98;37.43
15477;BME280;7840;42.702;23.296;2022-07-29T09:13:11;95155.63;;;32.02;36.92
15477;BME280;7840;42.702;23.296;2022-07-29T09:15:40;95161.31;;;32.38;36.89
15477;BME280;7840;42.702;23.296;2022-07-29T09:18:37;95156.72;;;32.60;36.85
15477;BME280;7840;42.702;23.296;2022-07-29T09:21:11;95163.91;;;33.00;35.32
15477;BME280;7840;42.702;23.296;2022-07-29T09:24:05;95157.69;;;33.10;35.52
15477;BME280;7840;42.702;23.296;2022-07-29T09:26:35;95157.84;;;32.48;35.71
15477;BME280;7840;42.702;23.296;2022-07-29T09:29:10;95163.00;;;32.64;36.47
15477;BME280;7840;42.702;23.296;2022-07-29T09:31:47;95158.31;;;32.68;35.13
15477;BME280;7840;42.702;23.296;2022-07-29T09:34:17;95158.41;;;32.86;34.55
15477;BME280;7840;42.702;23.296;2022-07-29T09:36:51;95158.44;;;33.00;34.36
15477;BME280;7840;42.702;23.296;2022-07-29T09:39:30;95154.16;;;33.17;34.80
15477;BME280;7840;42.702;23.296;2022-07-29T09:42:00;95152.22;;;33.25;35.25
15477;BME280;7840;42.702;23.296;2022-07-29T09:44:41;95153.00;;;33.29;34.05
15477;BME280;7840;42.702;23.296;2022-07-29T09:47:11;95152.25;;;33.46;34.27
15477;BME280;7840;42.702;23.296;2022-07-29T09:49:52;95147.94;;;33.73;33.31
15477;BME280;7840;42.702;23.296;2022-07-29T09:52:20;95140.47;;;33.99;33.09
15477;BME280;7840;42.702;23.296;2022-07-29T09:54:48;95146.34;;;33.37;33.87
15477;BME280;7840;42.702;23.296;2022-07-29T09:57:25;95138.53;;;33.42;34.24
15477;BME280;7840;42.702;23.296;2022-07-29T10:00:00;95134.22;;;33.70;34.22
15477;BME280;7840;42.702;23.296;2022-07-29T10:02:31;95137.75;;;33.92;33.52
15477;BME280;7840;42.702;23.296;2022-07-29T10:05:00;95128.66;;;33.88;33.80
15477;BME280;7840;42.702;23.296;2022-07-29T10:07:44;95123.19;;;33.98;33.90
15477;BME280;7840;42.702;23.296;2022-07-29T10:10:28;95119.28;;;33.39;34.47
15477;BME280;7840;42.702;23.296;2022-07-29T10:12:59;95130.63;;;33.12;34.27
15477;BME280;7840;42.702;23.296;2022-07-29T10:15:29;95115.34;;;33.79;33.87
15477;BME280;7840;42.702;23.296;2022-07-29T10:18:00;95110.50;;;34.37;32.76
15477;BME280;7840;42.702;23.296;2022-07-29T10:20:42;95103.72;;;34.66;32.63
15477;BME280;7840;42.702;23.296;2022-07-29T10:23:12;95094.69;;;34.62;31.83
15477;BME280;7840;42.702;23.296;2022-07-29T10:25:48;95098.16;;;34.80;31.26
15477;BME280;7840;42.702;23.296;2022-07-29T10:28:19;95088.75;;;35.33;31.11
15477;BME280;7840;42.702;23.296;2022-07-29T10:30:51;95097.50;;;35.21;31.45
15477;BME280;7840;42.702;23.296;2022-07-29T10:33:32;95094.09;;;35.03;31.54
15477;BME280;7840;42.702;23.296;2022-07-29T10:36:20;95091.59;;;35.19;31.81
15477;BME280;7840;42.702;23.296;2022-07-29T10:38:58;95087.66;;;35.72;30.86
15477;BME280;7840;42.702;23.296;2022-07-29T10:41:47;95088.25;;;35.94;30.62
15477;BME280;7840;42.702;23.296;2022-07-29T10:44:21;95090.84;;;35.67;30.39
15477;BME280;7840;42.702;23.296;2022-07-29T10:46:50;95085.31;;;35.67;30.73
15477;BME280;7840;42.702;23.296;2022-07-29T10:49:21;95074.44;;;35.53;30.15
15477;BME280;7840;42.702;23.296;2022-07-29T10:51:59;95079.28;;;35.83;29.91
15477;BME280;7840;42.702;23.296;2022-07-29T10:54:44;95075.75;;;36.20;28.98
15477;BME280;7840;42.702;23.296;2022-07-29T10:57:28;95065.84;;;36.23;28.63
15477;BME280;7840;42.702;23.296;2022-07-29T11:00:31;95063.25;;;36.46;28.66
15477;BME280;7840;42.702;23.296;2022-07-29T11:03:02;95056.69;;;35.99;29.02
15477;BME280;7840;42.702;23.296;2022-07-29T11:05:57;95044.75;;;36.09;29.12
15477;BME280;7840;42.702;23.296;2022-07-29T11:08:25;95049.56;;;36.66;28.57
15477;BME280;7840;42.702;23.296;2022-07-29T11:14:07;95048.50;;;36.87;28.49
15477;BME280;7840;42.702;23.296;2022-07-29T11:16:58;95043.09;;;36.76;28.44
15477;BME280;7840;42.702;23.296;2022-07-29T11:19:26;95052.81;;;37.15;28.72
15477;BME280;7840;42.702;23.296;2022-07-29T11:21:55;95045.59;;;37.21;28.45
15477;BME280;7840;42.702;23.296;2022-07-29T11:24:24;95044.31;;;36.75;28.13
15477;BME280;7840;42.702;23.296;2022-07-29T11:27:11;95043.63;;;36.67;28.30
15477;BME280;7840;42.702;23.296;2022-07-29T11:29:48;95036.19;;;36.91;28.16
15477;BME280;7840;42.702;23.296;2022-07-29T11:32:17;95032.59;;;37.45;27.88
15477;BME280;7840;42.702;23.296;2022-07-29T11:34:47;95033.25;;;37.53;27.08
15477;BME280;7840;42.702;23.296;2022-07-29T11:37:22;95034.53;;;37.48;27.52
15477;BME280;7840;42.702;23.296;2022-07-29T11:40:15;95038.75;;;37.76;27.67
15477;BME280;7840;42.702;23.296;2022-07-29T11:42:46;95036.03;;;37.72;27.67
15477;BME280;7840;42.702;23.296;2022-07-29T11:45:16;95036.25;;;37.38;27.15
15477;BME280;7840;42.702;23.296;2022-07-29T11:47:51;95028.66;;;37.66;26.72
15477;BME280;7840;42.702;23.296;2022-07-29T11:50:28;95020.84;;;37.61;27.30
15477;BME280;7840;42.702;23.296;2022-07-29T11:52:58;95020.00;;;37.87;26.65
15477;BME280;7840;42.702;23.296;2022-07-29T11:55:26;95020.50;;;37.82;27.08
15477;BME280;7840;42.702;23.296;2022-07-29T11:57:55;95018.78;;;38.08;27.05
15477;BME280;7840;42.702;23.296;2022-07-29T12:00:31;95018.56;;;38.19;26.39
15477;BME280;7840;42.702;23.296;2022-07-29T12:03:03;95018.88;;;38.44;26.55
15477;BME280;7840;42.702;23.296;2022-07-29T12:05:37;95022.16;;;38.75;26.17
15477;BME280;7840;42.702;23.296;2022-07-29T12:08:11;95017.97;;;39.20;25.73
15477;BME280;7840;42.702;23.296;2022-07-29T12:10:44;95017.94;;;38.87;25.41
15477;BME280;7840;42.702;23.296;2022-07-29T12:13:13;95015.31;;;38.96;25.32
15477;BME280;7840;42.702;23.296;2022-07-29T12:15:42;95006.47;;;39.66;25.41
15477;BME280;7840;42.702;23.296;2022-07-29T12:18:13;95012.38;;;39.69;24.75
15477;BME280;7840;42.702;23.296;2022-07-29T12:20:40;95009.88;;;39.87;24.41
15477;BME280;7840;42.702;23.296;2022-07-29T12:23:10;95013.88;;;39.86;24.10
15477;BME280;7840;42.702;23.296;2022-07-29T12:25:41;95017.78;;;40.17;23.52
15477;BME280;7840;42.702;23.296;2022-07-29T12:28:10;95011.59;;;39.97;23.81
15477;BME280;7840;42.702;23.296;2022-07-29T12:30:43;95004.97;;;40.07;24.08
15477;BME280;7840;42.702;23.296;2022-07-29T12:33:13;94991.28;;;40.00;24.67
15477;BME280;7840;42.702;23.296;2022-07-29T12:36:03;95000.81;;;39.25;24.40
15477;BME280;7840;42.702;23.296;2022-07-29T12:38:35;94997.69;;;39.06;25.29
15477;BME280;7840;42.702;23.296;2022-07-29T12:41:03;95000.22;;;39.33;25.16
15477;BME280;7840;42.702;23.296;2022-07-29T12:43:31;95003.38;;;39.64;24.71
15477;BME280;7840;42.702;23.296;2022-07-29T12:46:12;94989.81;;;38.69;25.48
15477;BME280;7840;42.702;23.296;2022-07-29T12:48:49;94990.22;;;38.87;25.61
15477;BME280;7840;42.702;23.296;2022-07-29T12:51:29;94992.47;;;39.25;25.18
15477;BME280;7840;42.702;23.296;2022-07-29T12:54:07;94984.66;;;39.69;24.05
15477;BME280;7840;42.702;23.296;2022-07-29T12:56:36;94979.94;;;39.82;24.04
15477;BME280;7840;42.702;23.296;2022-07-29T12:59:21;94981.63;;;40.34;23.51
15477;BME280;7840;42.702;23.296;2022-07-29T13:01:51;94980.84;;;40.33;23.32
15477;BME280;7840;42.702;23.296;2022-07-29T13:04:40;94977.81;;;39.86;23.92
15477;BME280;7840;42.702;23.296;2022-07-29T13:07:09;94975.41;;;40.01;23.83
15477;BME280;7840;42.702;23.296;2022-07-29T13:09:43;94968.25;;;40.03;23.64
15477;BME280;7840;42.702;23.296;2022-07-29T13:12:15;94972.22;;;40.02;23.46
15477;BME280;7840;42.702;23.296;2022-07-29T13:14:44;94963.34;;;40.07;23.21
15477;BME280;7840;42.702;23.296;2022-07-29T13:17:14;94965.72;;;40.09;23.26
15477;BME280;7840;42.702;23.296;2022-07-29T13:19:43;94957.44;;;40.47;23.04
15477;BME280;7840;42.702;23.296;2022-07-29T13:22:13;94969.72;;;40.20;23.60
15477;BME280;7840;42.702;23.296;2022-07-29T13:24:50;94960.41;;;40.27;23.85
15477;BME280;7840;42.702;23.296;2022-07-29T13:27:38;94959.00;;;40.48;23.35